Time;durP1;ratioP1;P1;durP2;ratioP2;P2;SDS_P1;SDS_P2;PMS_P1;PMS_P2;Temp;Humidity;BMP_temperature;BMP_pressure;BME280_temperature;BME280_humidity;BME280_pressure;Samples;Min_cycle;Max_cycle;Signal;HPM_P1;HPM_P2
2022/11/26 00:00:27;;;;;;;24.33;6.73;;;;;;;;;;5074853;28;20637;-82
2022/11/26 00:02:53;;;;;;;16.00;5.93;;;;;;;;;;5092660;28;20784;-82
2022/11/26 00:05:21;;;;;;;18.87;6.40;;;;;;;;;;5091950;28;20302;-82
2022/11/26 00:07:51;;;;;;;16.87;6.73;;;;;;;;;;5091321;28;20726;-82
2022/11/26 00:10:20;;;;;;;27.07;7.43;;;;;;;;;;5092874;28;20286;-82
2022/11/26 00:12:46;;;;;;;23.57;6.37;;;6.60;99.90;;;;;;5092586;28;20286;-82
2022/11/26 00:15:21;;;;;;;22.07;6.90;;;6.30;99.90;;;;;;5091936;28;20285;-82
2022/11/26 00:17:48;;;;;;;24.67;7.20;;;6.20;99.90;;;;;;5091641;28;20290;-82
2022/11/26 00:20:15;;;;;;;21.17;6.60;;;6.20;99.90;;;;;;5092838;28;20062;-82
2022/11/26 00:22:45;;;;;;;18.70;6.60;;;6.20;99.90;;;;;;5074310;28;20290;-82
2022/11/26 00:25:22;;;;;;;14.93;6.10;;;6.10;99.90;;;;;;5091676;28;20305;-82
2022/11/26 00:27:49;;;;;;;22.83;6.10;;;6.10;99.90;;;;;;5091582;28;20297;-82
2022/11/26 00:30:24;;;;;;;24.70;7.10;;;6.10;99.90;;;;;;5074875;28;20786;-82
2022/11/26 00:32:51;;;;;;;23.45;6.45;;;6.10;99.90;;;;;;5092306;28;20827;-82
2022/11/26 00:35:17;;;;;;;25.43;7.57;;;6.10;99.90;;;;;;5091657;28;20105;-81
2022/11/26 00:38:14;;;;;;;23.63;7.65;;;6.00;99.90;;;;;;5091355;28;20325;-82
2022/11/26 00:40:40;;;;;;;20.65;6.47;;;6.00;99.90;;;;;;5091661;28;20048;-82
2022/11/26 00:43:12;;;;;;;20.90;7.40;;;6.10;99.90;;;;;;5096418;28;20407;-81
2022/11/26 00:45:38;;;;;;;23.90;7.30;;;6.00;99.90;;;;;;5094908;28;20777;-82
2022/11/26 00:48:04;;;;;;;24.10;7.63;;;6.00;99.90;;;;;;5078539;28;20335;-81
2022/11/26 00:50:36;;;;;;;26.53;7.70;;;6.00;99.90;;;;;;5094833;28;20051;-82
2022/11/26 00:53:04;;;;;;;21.33;6.03;;;6.00;99.90;;;;;;5095393;28;20400;-82
2022/11/26 00:55:35;;;;;;;25.03;7.03;;;6.00;99.90;;;;;;5094968;28;20297;-82
2022/11/26 00:58:01;;;;;;;16.20;6.10;;;6.10;99.90;;;;;;5095134;28;20766;-81
2022/11/26 01:00:29;;;;;;;19.27;5.83;;;6.00;99.90;;;;;;5095072;28;20331;-82
2022/11/26 01:02:55;;;;;;;26.17;7.33;;;6.00;99.90;;;;;;5094674;28;20278;-81
2022/11/26 01:05:22;;;;;;;20.57;6.40;;;6.00;99.90;;;;;;5078126;28;20302;-82
2022/11/26 01:07:49;;;;;;;19.80;5.93;;;6.00;99.90;;;;;;5094551;28;20492;-81
2022/11/26 01:10:21;;;;;;;19.50;5.63;;;6.00;99.90;;;;;;5094711;28;20724;-82
2022/11/26 01:12:48;;;;;;;18.07;6.43;;;5.90;99.90;;;;;;5077673;28;20347;-82
2022/11/26 01:15:15;;;;;;;22.67;5.83;;;5.90;99.90;;;;;;5094806;28;20289;-82
2022/11/26 01:17:41;;;;;;;18.48;5.63;;;5.90;99.90;;;;;;5094515;28;20391;-81
2022/11/26 01:20:23;;;;;;;21.23;5.13;;;5.90;99.90;;;;;;5094414;28;20074;-81
2022/11/26 01:22:50;;;;;;;15.60;5.93;;;5.90;99.90;;;;;;5094504;28;20293;-82
2022/11/26 01:25:16;;;;;;;25.23;6.17;;;5.80;99.90;;;;;;5095550;28;20342;-82
2022/11/26 01:27:43;;;;;;;24.17;7.20;;;5.80;99.90;;;;;;5095264;28;20278;-82
2022/11/26 01:30:15;;;;;;;29.87;6.40;;;5.90;99.90;;;;;;5095533;28;20270;-82
2022/11/26 01:32:41;;;;;;;21.00;5.37;;;5.90;99.90;;;;;;5094231;28;20319;-82
2022/11/26 01:35:07;;;;;;;30.87;6.70;;;5.90;99.90;;;;;;5094344;28;20282;-82
2022/11/26 01:37:33;;;;;;;30.15;5.80;;;5.90;99.90;;;;;;5095360;28;20094;-81
2022/11/26 01:39:59;;;;;;;25.70;6.10;;;5.90;99.90;;;;;;5095048;28;20095;-81
2022/11/26 01:42:39;;;;;;;23.70;5.10;;;5.90;99.90;;;;;;5094056;28;20047;-82
2022/11/26 01:45:16;;;;;;;25.67;5.63;;;6.00;99.90;;;;;;5077155;28;20127;-82
2022/11/26 01:47:42;;;;;;;21.85;4.80;;;5.90;99.90;;;;;;5093873;28;20293;-82
2022/11/26 01:50:26;;;;;;;30.57;6.10;;;5.80;99.90;;;;;;5094020;28;20048;-81
2022/11/26 01:53:13;;;;;;;28.53;5.70;;;5.80;99.90;;;;;;5093049;28;20294;-82
2022/11/26 01:55:43;;;;;;;28.67;6.57;;;5.80;99.90;;;;;;5094526;28;20297;-81
2022/11/26 01:58:14;;;;;;;22.05;5.03;;;5.80;99.90;;;;;;5093939;28;20297;-81
2022/11/26 02:00:40;;;;;;;18.77;5.33;;;5.80;99.90;;;;;;5093730;28;20127;-82
2022/11/26 02:03:07;;;;;;;14.68;4.30;;;5.80;99.90;;;;;;5095138;28;20313;-81
2022/11/26 02:05:41;;;;;;;16.77;4.80;;;5.80;99.90;;;;;;5094984;28;20040;-81
2022/11/26 02:08:08;;;;;;;19.20;4.80;;;5.80;99.90;;;;;;5094165;28;20197;-82
2022/11/26 02:10:34;;;;;;;20.63;6.05;;;5.60;99.90;;;;;;5076542;28;20093;-82
2022/11/26 02:13:00;;;;;;;18.27;4.67;;;5.80;99.90;;;;;;5093315;28;20052;-82
2022/11/26 02:15:31;;;;;;;19.73;4.97;;;5.70;99.90;;;;;;5093687;28;20050;-82
2022/11/26 02:18:02;;;;;;;14.52;3.72;;;5.70;99.90;;;;;;5093420;28;20148;-82
2022/11/26 02:20:46;;;;;;;18.67;4.93;;;5.70;99.90;;;;;;5093684;28;20054;-82
2022/11/26 02:23:27;;;;;;;23.17;5.40;;;5.60;99.90;;;;;;5093511;28;20433;-82
2022/11/26 02:26:24;;;;;;;21.63;5.43;;;5.70;99.90;;;;;;5093168;28;20666;-82
2022/11/26 02:29:00;;;;;;;16.75;4.40;;;5.70;99.90;;;;;;5093278;28;20345;-82
2022/11/26 02:31:52;;;;;;;21.02;5.30;;;5.60;99.90;;;;;;5094439;28;20139;-82
2022/11/26 02:34:18;;;;;;;17.13;4.90;;;5.60;99.90;;;;;;5089941;28;20176;-82
2022/11/26 02:37:07;;;;;;;18.70;4.23;;;5.70;99.90;;;;;;5092974;28;20131;-82
2022/11/26 02:39:32;;;;;;;23.92;5.75;;;5.70;99.90;;;;;;5093515;28;20091;-82
2022/11/26 02:42:01;;;;;;;22.77;5.13;;;5.70;99.90;;;;;;5092895;28;20095;-82
2022/11/26 02:44:45;;;;;;;22.60;5.00;;;5.70;99.90;;;;;;5094065;28;20054;-82
2022/11/26 02:47:14;;;;;;;22.55;6.28;;;5.70;99.90;;;;;;5094143;28;20289;-82
2022/11/26 02:49:43;;;;;;;26.40;5.65;;;5.70;99.90;;;;;;5094169;28;20053;-82
2022/11/26 02:52:10;;;;;;;20.83;6.07;;;5.60;99.90;;;;;;5093243;28;20055;-82
2022/11/26 02:54:38;;;;;;;23.45;6.18;;;5.80;99.90;;;;;;5092847;28;20361;-82
2022/11/26 02:57:07;;;;;;;24.90;6.28;;;5.70;99.90;;;;;;5093567;28;20052;-82
2022/11/26 02:59:33;;;;;;;26.10;6.83;;;5.70;99.90;;;;;;5092713;28;20480;-82
2022/11/26 03:02:20;;;;;;;24.00;6.27;;;5.70;99.90;;;;;;5092437;28;20278;-82
2022/11/26 03:04:50;;;;;;;23.60;5.60;;;5.70;99.90;;;;;;5092503;28;20305;-82
2022/11/26 03:07:17;;;;;;;28.67;6.75;;;5.80;99.90;;;;;;5092970;28;20286;-82
2022/11/26 03:09:54;;;;;;;19.00;5.78;;;5.70;99.90;;;;;;5093721;28;20045;-81
2022/11/26 03:12:20;;;;;;;23.30;6.30;;;5.70;99.90;;;;;;5093639;28;20486;-81
2022/11/26 03:14:46;;;;;;;21.57;6.23;;;5.70;99.90;;;;;;5093349;28;20047;-81
2022/11/26 03:17:12;;;;;;;33.50;7.50;;;5.70;99.90;;;;;;5092851;28;20047;-82
2022/11/26 03:19:37;;;;;;;25.77;6.03;;;5.70;99.90;;;;;;5092563;28;20055;-82
2022/11/26 03:22:04;;;;;;;29.57;5.53;;;5.70;99.90;;;;;;5092223;28;20732;-81
2022/11/26 03:24:30;;;;;;;23.52;6.78;;;5.70;99.90;;;;;;5093008;28;20496;-82
2022/11/26 03:26:56;;;;;;;26.87;6.53;;;5.70;99.90;;;;;;5093029;28;20476;-82
2022/11/26 03:29:21;;;;;;;21.03;6.43;;;5.70;99.90;;;;;;5093753;28;20361;-82
2022/11/26 03:31:47;;;;;;;21.07;5.83;;;5.70;99.90;;;;;;5075032;28;20075;-81
2022/11/26 03:34:13;;;;;;;25.67;6.27;;;5.70;99.90;;;;;;5075860;28;20131;-82
2022/11/26 03:36:38;;;;;;;20.20;5.43;;;5.60;99.90;;;;;;5075400;28;20055;-82
2022/11/26 03:39:05;;;;;;;29.57;7.07;;;5.60;99.90;;;;;;5092913;28;20060;-82
2022/11/26 03:41:31;;;;;;;25.45;7.43;;;5.60;99.90;;;;;;5093380;28;20446;-81
2022/11/26 03:43:56;;;;;;;23.80;6.73;;;5.60;99.90;;;;;;5091767;28;20152;-81
2022/11/26 03:46:22;;;;;;;22.07;5.23;;;5.60;99.90;;;;;;5091827;28;20385;-81
2022/11/26 03:48:47;;;;;;;20.07;5.73;;;5.60;99.90;;;;;;5091840;28;20052;-81
2022/11/26 03:51:13;;;;;;;22.97;6.53;;;5.60;99.90;;;;;;5091746;28;20127;-81
2022/11/26 03:53:39;;;;;;;23.13;6.73;;;5.60;99.90;;;;;;5092996;28;20040;-81
2022/11/26 03:56:05;;;;;;;19.27;5.70;;;5.60;99.90;;;;;;5091796;28;20056;-81
2022/11/26 03:58:30;;;;;;;25.30;7.13;;;5.60;99.90;;;;;;5093108;28;20048;-81
2022/11/26 04:00:56;;;;;;;19.77;5.43;;;5.60;99.90;;;;;;5091626;28;20052;-82
2022/11/26 04:03:22;;;;;;;31.67;7.47;;;5.60;99.90;;;;;;5092313;28;20059;-82
2022/11/26 04:05:47;;;;;;;24.07;7.00;;;5.60;99.90;;;;;;5092988;28;20197;-81
2022/11/26 04:08:13;;;;;;;24.27;6.97;;;5.50;99.90;;;;;;5092627;28;20065;-81
2022/11/26 04:10:39;;;;;;;25.77;6.93;;;5.60;99.90;;;;;;5074689;28;20485;-81
2022/11/26 04:13:05;;;;;;;31.07;8.07;;;5.50;99.90;;;;;;5091650;28;20143;-81
2022/11/26 04:15:30;;;;;;;22.87;6.50;;;5.60;99.90;;;;;;5076586;28;20052;-81
2022/11/26 04:17:56;;;;;;;25.87;7.23;;;5.40;99.90;;;;;;5095635;28;20047;-82
2022/11/26 04:20:22;;;;;;;27.10;6.90;;;5.50;99.90;;;;;;5097022;28;20050;-81
2022/11/26 04:22:47;;;;;;;28.27;7.97;;;5.60;99.90;;;;;;5095972;28;20047;-81
2022/11/26 04:25:13;;;;;;;30.17;7.70;;;5.60;99.90;;;;;;5078487;28;20858;-81
2022/11/26 04:27:39;;;;;;;29.43;8.00;;;5.50;99.90;;;;;;5095797;28;20106;-82
2022/11/26 04:30:06;;;;;;;20.90;7.00;;;5.50;99.90;;;;;;5095434;28;20052;-81
2022/11/26 04:32:32;;;;;;;28.48;8.07;;;5.50;99.90;;;;;;5096781;28;20130;-81
2022/11/26 04:34:58;;;;;;;28.97;8.27;;;5.50;99.90;;;;;;5095426;28;20143;-81
2022/11/26 04:37:23;;;;;;;21.33;8.87;;;5.50;99.90;;;;;;5095931;28;20044;-82
2022/11/26 04:39:50;;;;;;;31.20;8.50;;;5.50;99.90;;;;;;5061726;28;20052;-82
2022/11/26 04:42:16;;;;;;;26.95;8.63;;;5.50;99.90;;;;;;5095137;28;20059;-82
2022/11/26 04:44:41;;;;;;;27.90;7.57;;;5.50;99.90;;;;;;5078412;28;20040;-81
2022/11/26 04:47:07;;;;;;;29.70;8.87;;;5.50;99.90;;;;;;5094817;28;20093;-82
2022/11/26 04:49:33;;;;;;;31.13;9.43;;;5.50;99.90;;;;;;5095684;28;20052;-82
2022/11/26 04:51:58;;;;;;;31.53;8.37;;;5.50;99.90;;;;;;5095068;28;20056;-82
2022/11/26 04:54:24;;;;;;;29.93;9.10;;;5.50;99.90;;;;;;5078618;28;20118;-82
2022/11/26 04:56:50;;;;;;;26.63;9.30;;;5.50;99.90;;;;;;5096354;28;20040;-82
2022/11/26 04:59:15;;;;;;;32.50;9.07;;;5.50;99.90;;;;;;5094673;28;20468;-81
2022/11/26 05:01:41;;;;;;;28.90;8.50;;;5.50;99.90;;;;;;5096100;28;20048;-81
2022/11/26 05:04:07;;;;;;;32.47;9.57;;;5.50;99.90;;;;;;5095822;28;20484;-81
2022/11/26 05:06:32;;;;;;;24.47;7.73;;;5.40;99.90;;;;;;5094600;28;20479;-81
2022/11/26 05:08:58;;;;;;;22.03;7.77;;;5.50;99.90;;;;;;5094773;28;20048;-81
2022/11/26 05:11:24;;;;;;;37.10;9.63;;;5.40;99.90;;;;;;5077980;28;20097;-81
2022/11/26 05:13:50;;;;;;;24.70;7.40;;;5.50;99.90;;;;;;5094774;28;20487;-81
2022/11/26 05:16:16;;;;;;;31.30;9.52;;;5.50;99.90;;;;;;5094511;28;20044;-81
2022/11/26 05:18:42;;;;;;;31.47;9.47;;;5.50;99.90;;;;;;5095823;28;20109;-82
2022/11/26 05:21:07;;;;;;;29.95;8.73;;;5.50;99.90;;;;;;5095478;28;20368;-82
2022/11/26 05:23:33;;;;;;;27.97;8.67;;;5.40;99.90;;;;;;5094784;28;20097;-82
2022/11/26 05:25:59;;;;;;;35.50;9.27;;;5.50;99.90;;;;;;5094466;28;20044;-82
2022/11/26 05:28:25;;;;;;;33.47;8.13;;;5.40;99.90;;;;;;5094310;28;20499;-82
2022/11/26 05:30:57;;;;;;;26.93;9.37;;;5.40;99.90;;;;;;5095594;28;20399;-82
2022/11/26 05:33:23;;;;;;;27.38;9.80;;;5.40;99.90;;;;;;5094405;28;20048;-82
2022/11/26 05:35:49;;;;;;;32.87;9.77;;;5.40;99.90;;;;;;5095476;28;20364;-81
2022/11/26 05:38:14;;;;;;;32.40;9.83;;;5.40;99.90;;;;;;5095129;28;20048;-81
2022/11/26 05:40:40;;;;;;;30.70;8.77;;;5.50;99.90;;;;;;5075926;28;20060;-81
2022/11/26 05:43:06;;;;;;;27.63;9.27;;;5.40;99.90;;;;;;5093978;28;20448;-82
2022/11/26 05:45:31;;;;;;;29.67;9.10;;;5.40;99.90;;;;;;5076349;28;20044;-82
2022/11/26 05:47:57;;;;;;;21.97;8.30;;;5.40;99.90;;;;;;5094299;28;20053;-82
2022/11/26 05:50:23;;;;;;;21.77;8.53;;;5.40;99.90;;;;;;5092718;28;20908;-82
2022/11/26 05:52:48;;;;;;;24.53;7.80;;;5.30;99.90;;;;;;5075972;28;20063;-82
2022/11/26 05:55:15;;;;;;;29.57;8.97;;;5.40;99.90;;;;;;5076005;28;20048;-82
2022/11/26 05:57:41;;;;;;;32.63;8.63;;;5.40;99.90;;;;;;5093002;28;20052;-82
2022/11/26 06:00:09;;;;;;;29.50;9.30;;;5.40;99.90;;;;;;5093724;28;20044;-81
2022/11/26 06:02:35;;;;;;;36.10;9.55;;;5.40;99.90;;;;;;5092941;28;20052;-82
2022/11/26 06:05:01;;;;;;;31.30;11.43;;;5.40;99.90;;;;;;5092882;28;20093;-82
2022/11/26 06:07:27;;;;;;;23.73;9.07;;;5.30;99.90;;;;;;5092693;28;20047;-82
2022/11/26 06:09:53;;;;;;;19.00;8.80;;;5.30;99.90;;;;;;5093776;28;20082;-81
2022/11/26 06:12:18;;;;;;;26.70;8.60;;;5.40;99.90;;;;;;5092425;28;20079;-82
2022/11/26 06:14:44;;;;;;;44.37;10.87;;;5.40;99.90;;;;;;5075953;28;20044;-82
2022/11/26 06:17:10;;;;;;;30.97;10.37;;;5.30;99.90;;;;;;5075637;28;20051;-82
2022/11/26 06:19:36;;;;;;;30.90;10.57;;;5.30;99.90;;;;;;5092425;28;20406;-81
2022/11/26 06:22:02;;;;;;;28.17;10.07;;;5.30;99.90;;;;;;5075551;28;20048;-81
2022/11/26 06:24:28;;;;;;;35.27;10.27;;;5.30;99.90;;;;;;5093303;28;20055;-82
2022/11/26 06:26:53;;;;;;;29.10;9.87;;;5.40;99.90;;;;;;5093803;28;20468;-82
2022/11/26 06:29:19;;;;;;;32.47;9.47;;;5.40;99.90;;;;;;5075418;28;20325;-82
2022/11/26 06:31:45;;;;;;;37.77;10.83;;;5.30;99.90;;;;;;5093139;28;20108;-82
2022/11/26 06:34:10;;;;;;;32.17;10.17;;;5.30;99.90;;;;;;5093206;28;20044;-82
2022/11/26 06:36:36;;;;;;;25.00;8.67;;;5.30;99.90;;;;;;5093367;28;20101;-81
2022/11/26 06:39:02;;;;;;;31.98;11.23;;;5.40;99.90;;;;;;5035943;28;1121219;-81
2022/11/26 06:41:27;;;;;;;34.10;9.97;;;5.40;99.90;;;;;;5092668;28;20476;-82
2022/11/26 06:43:53;;;;;;;34.67;10.97;;;5.40;99.90;;;;;;5094060;28;20048;-81
2022/11/26 06:46:19;;;;;;;40.03;10.73;;;5.40;99.90;;;;;;5092621;28;20044;-82
2022/11/26 06:48:44;;;;;;;33.43;10.37;;;5.40;99.90;;;;;;5076209;28;20487;-82
2022/11/26 06:51:13;;;;;;;30.00;10.27;;;5.30;99.90;;;;;;5094079;28;20120;-82
2022/11/26 06:53:39;;;;;;;33.17;9.45;;;5.30;99.90;;;;;;5093011;28;20089;-82
2022/11/26 06:56:09;;;;;;;27.60;10.30;;;5.30;99.90;;;;;;5092940;28;20051;-82
2022/11/26 06:58:34;;;;;;;27.17;9.20;;;5.40;99.90;;;;;;5075719;28;20059;-82
2022/11/26 07:01:09;;;;;;;34.30;9.67;;;5.30;99.90;;;;;;5075983;28;20044;-82
2022/11/26 07:03:35;;;;;;;41.65;10.95;;;5.30;99.90;;;;;;5093554;28;20039;-81
2022/11/26 07:06:01;;;;;;;33.83;10.23;;;5.30;99.90;;;;;;5093723;28;20491;-82
2022/11/26 07:08:26;;;;;;;35.77;10.40;;;5.30;99.90;;;;;;5092375;28;20440;-82
2022/11/26 07:10:52;;;;;;;34.97;11.90;;;5.30;99.90;;;;;;5092689;28;20044;-81
2022/11/26 07:13:18;;;;;;;31.07;9.27;;;5.30;99.90;;;;;;5109497;28;20040;-82
2022/11/26 07:15:43;;;;;;;30.97;10.17;;;5.40;99.90;;;;;;5093797;28;20437;-81
2022/11/26 07:18:09;;;;;;;34.00;11.30;;;5.30;99.90;;;;;;5092552;28;20051;-82
2022/11/26 07:20:36;;;;;;;30.17;12.67;;;5.30;99.90;;;;;;5092262;28;20086;-82
2022/11/26 07:23:03;;;;;;;37.70;15.75;;;5.30;99.90;;;;;;5092437;28;20063;-82
2022/11/26 07:25:30;;;;;;;35.70;12.00;;;5.30;99.90;;;;;;5091989;28;20052;-82
2022/11/26 07:27:56;;;;;;;30.90;10.23;;;5.30;99.90;;;;;;5092638;28;20181;-82
2022/11/26 07:30:22;;;;;;;31.70;11.20;;;5.30;99.90;;;;;;5093180;28;20120;-82
2022/11/26 07:32:47;;;;;;;38.73;11.93;;;5.40;99.90;;;;;;5093386;28;20119;-82
2022/11/26 07:35:13;;;;;;;28.67;9.40;;;5.40;99.90;;;;;;5093373;28;20495;-82
2022/11/26 07:37:39;;;;;;;30.57;11.97;;;5.40;99.90;;;;;;5075085;28;20057;-81
2022/11/26 07:40:06;;;;;;;33.20;12.03;;;5.40;99.90;;;;;;5091617;28;20056;-81
2022/11/26 07:42:32;;;;;;;31.92;12.07;;;5.40;99.90;;;;;;5092780;28;20131;-82
2022/11/26 07:44:58;;;;;;;35.25;11.45;;;5.40;99.90;;;;;;5092118;28;20126;-82
2022/11/26 07:47:24;;;;;;;34.33;11.73;;;5.40;99.90;;;;;;5091858;28;20185;-82
2022/11/26 07:49:50;;;;;;;24.35;10.68;;;5.40;99.90;;;;;;5091387;28;20291;-81
2022/11/26 07:52:15;;;;;;;26.80;11.57;;;5.50;99.90;;;;;;5075302;28;20051;-82
2022/11/26 07:54:41;;;;;;;33.90;11.73;;;5.50;99.90;;;;;;5091795;28;20130;-83
2022/11/26 07:57:07;;;;;;;31.63;11.23;;;5.50;99.90;;;;;;5092193;28;20217;-83
2022/11/26 07:59:33;;;;;;;35.60;12.67;;;5.60;99.90;;;;;;5075053;28;20559;-83
2022/11/26 08:01:58;;;;;;;42.77;13.03;;;5.60;99.90;;;;;;5092322;28;20056;-83
2022/11/26 08:04:24;;;;;;;35.43;12.10;;;5.60;99.90;;;;;;5091419;28;20047;-82
2022/11/26 08:06:50;;;;;;;32.78;12.77;;;5.60;99.90;;;;;;5092001;28;20044;-82
2022/11/26 08:09:16;;;;;;;32.67;11.13;;;5.70;99.90;;;;;;5075228;28;20551;-79
2022/11/26 08:11:42;;;;;;;39.17;12.47;;;5.60;99.90;;;;;;5092322;28;20052;-81
2022/11/26 08:14:11;;;;;;;34.27;13.07;;;5.70;99.90;;;;;;5092884;28;20059;-81
2022/11/26 08:16:38;;;;;;;33.10;11.98;;;5.70;99.90;;;;;;5092663;28;20040;-81
2022/11/26 08:19:06;;;;;;;38.67;12.73;;;5.80;99.90;;;;;;5092809;28;20070;-82
2022/11/26 08:21:32;;;;;;;35.57;10.90;;;5.80;99.90;;;;;;5074806;28;20464;-79
2022/11/26 08:23:58;;;;;;;30.75;12.30;;;5.80;99.90;;;;;;5091706;28;20784;-77
2022/11/26 08:26:24;;;;;;;37.17;11.77;;;5.80;99.90;;;;;;5092538;28;20036;-79
2022/11/26 08:28:50;;;;;;;30.90;11.70;;;5.80;99.90;;;;;;5092784;28;20361;-80
2022/11/26 08:31:17;;;;;;;34.07;11.00;;;5.80;99.90;;;;;;5091682;28;20487;-81
2022/11/26 08:33:43;;;;;;;38.92;12.77;;;5.90;99.90;;;;;;5091236;28;20351;-80
2022/11/26 08:36:09;;;;;;;33.65;12.63;;;5.90;99.90;;;;;;5092841;28;20514;-81
2022/11/26 08:38:36;;;;;;;29.65;11.95;;;5.90;99.90;;;;;;5092150;28;20062;-80
2022/11/26 08:41:04;;;;;;;37.30;11.93;;;5.90;99.90;;;;;;5091902;28;20056;-79
2022/11/26 08:43:30;;;;;;;43.42;13.70;;;6.00;99.90;;;;;;5091572;28;20048;-79
2022/11/26 08:45:58;;;;;;;33.23;12.87;;;6.00;99.90;;;;;;5092230;28;20062;-79
2022/11/26 08:48:26;;;;;;;34.53;11.63;;;6.00;99.90;;;;;;5092631;28;20668;-82
2022/11/26 08:51:04;;;;;;;35.13;12.00;;;6.00;99.90;;;;;;5091544;28;20065;-78
2022/11/26 08:53:32;;;;;;;34.33;11.55;;;6.10;99.90;;;;;;5092345;28;20492;-78
2022/11/26 08:56:03;;;;;;;35.15;12.75;;;6.10;99.90;;;;;;5091406;28;20050;-79
2022/11/26 08:58:31;;;;;;;30.23;12.15;;;6.20;99.90;;;;;;5092352;28;20545;-80
2022/11/26 09:00:57;;;;;;;35.00;12.03;;;6.10;99.90;;;;;;5092753;28;20086;-79
2022/11/26 09:03:22;;;;;;;35.57;12.70;;;6.20;99.90;;;;;;5094873;28;20326;-79
2022/11/26 09:05:48;;;;;;;34.83;13.33;;;6.20;99.90;;;;;;5095699;28;20040;-80
2022/11/26 09:08:14;;;;;;;33.67;11.90;;;6.20;99.90;;;;;;5094895;28;20096;-81
2022/11/26 09:10:39;;;;;;;32.63;12.33;;;6.40;99.90;;;;;;5095764;28;20048;-80
2022/11/26 09:13:05;;;;;;;38.27;12.60;;;6.30;99.90;;;;;;5096158;28;20051;-81
2022/11/26 09:15:31;;;;;;;32.93;11.80;;;6.40;99.90;;;;;;5094235;28;20489;-80
2022/11/26 09:17:56;;;;;;;38.60;12.50;;;6.40;99.90;;;;;;5095872;28;20052;-80
2022/11/26 09:20:22;;;;;;;27.77;12.13;;;6.40;99.90;;;;;;5095769;28;20040;-79
2022/11/26 09:22:48;;;;;;;33.70;12.07;;;6.40;99.90;;;;;;5095564;28;20044;-80
2022/11/26 09:25:13;;;;;;;34.93;12.13;;;6.50;99.90;;;;;;5077615;28;20392;-78
2022/11/26 09:27:39;;;;;;;34.17;12.23;;;6.50;99.90;;;;;;5095162;28;20075;-80
2022/11/26 09:30:05;;;;;;;41.07;13.43;;;6.60;99.90;;;;;;5095555;28;20131;-78
2022/11/26 09:32:33;;;;;;;33.40;12.50;;;6.60;99.90;;;;;;5095229;28;20127;-79
2022/11/26 09:34:59;;;;;;;33.53;12.82;;;6.70;99.90;;;;;;5095043;28;20282;-80
2022/11/26 09:37:24;;;;;;;31.07;13.60;;;6.70;99.90;;;;;;5095442;28;20134;-85
2022/11/26 09:39:52;;;;;;;33.27;12.77;;;6.80;99.90;;;;;;5095140;28;20055;-84
2022/11/26 09:42:33;;;;;;;30.60;11.90;;;6.80;99.90;;;;;;5095322;28;20123;-82
2022/11/26 09:45:27;;;;;;;33.90;12.53;;;6.90;99.90;;;;;;5094494;28;20341;-77
2022/11/26 09:47:53;;;;;;;36.13;12.33;;;7.00;99.90;;;;;;5095040;28;20281;-77
2022/11/26 09:50:25;;;;;;;39.83;13.03;;;7.10;99.90;;;;;;5093917;28;20286;-78
2022/11/26 09:53:13;;;;;;;36.00;12.63;;;7.10;99.90;;;;;;5094849;28;20079;-77
2022/11/26 09:55:42;;;;;;;36.60;11.67;;;7.10;99.90;;;;;;5093971;28;20282;-78
2022/11/26 09:58:28;;;;;;;38.70;13.57;;;7.10;99.90;;;;;;5095136;28;20278;-78
2022/11/26 10:00:57;;;;;;;32.60;11.70;;;7.10;99.90;;;;;;5093789;28;20286;-82
2022/11/26 10:03:34;;;;;;;32.17;12.53;;;7.20;99.90;;;;;;5095242;28;20669;-78
2022/11/26 10:06:28;;;;;;;32.63;13.03;;;7.20;99.90;;;;;;5094519;28;20754;-78
2022/11/26 10:09:17;;;;;;;39.07;13.20;;;7.20;99.90;;;;;;5093522;28;20286;-81
2022/11/26 10:12:10;;;;;;;32.73;11.83;;;7.30;99.90;;;;;;5094507;28;20278;-80
2022/11/26 10:14:50;;;;;;;34.17;12.67;;;7.40;99.90;;;;;;5093907;28;20278;-81
2022/11/26 10:17:35;;;;;;;35.97;12.50;;;7.30;99.90;;;;;;5097532;28;20294;-80
2022/11/26 10:20:19;;;;;;;31.27;11.43;;;;;;;;;;5102956;28;20279;-84
2022/11/26 10:22:53;;;;;;;35.70;13.80;;;7.50;99.90;;;;;;5103732;28;20366;-84
2022/11/26 10:25:20;;;;;;;44.63;14.63;;;;;;;;;;5102197;28;20325;-83
2022/11/26 10:27:47;;;;;;;34.13;12.47;;;7.60;99.90;;;;;;5085207;28;20293;-84
2022/11/26 10:30:19;;;;;;;32.47;11.70;;;7.60;99.90;;;;;;5104990;28;20281;-84
2022/11/26 10:32:47;;;;;;;35.00;12.93;;;7.60;99.90;;;;;;5104611;28;20286;-84
2022/11/26 10:35:16;;;;;;;33.37;12.80;;;7.60;99.90;;;;;;5099220;28;20758;-84
2022/11/26 10:37:42;;;;;;;41.53;12.67;;;7.60;99.90;;;;;;5102442;28;20277;-83
2022/11/26 10:40:14;;;;;;;30.30;12.43;;;7.60;99.90;;;;;;5105012;28;20358;-80
2022/11/26 10:42:42;;;;;;;35.33;13.33;;;7.70;99.90;;;;;;5103626;28;20359;-80
2022/11/26 10:45:20;;;;;;;37.10;12.93;;;7.90;99.90;;;;;;5101659;28;20328;-79
2022/11/26 10:47:45;;;;;;;34.23;12.43;;;7.70;99.90;;;;;;5087215;28;20334;-80
2022/11/26 10:50:20;;;;;;;41.97;12.73;;;7.80;99.90;;;;;;5085307;28;20676;-83
2022/11/26 10:52:47;;;;;;;32.92;13.85;;;7.80;99.90;;;;;;5085273;28;20464;-81
2022/11/26 10:55:29;;;;;;;31.23;12.93;;;7.90;99.90;;;;;;5085671;28;20154;-84
2022/11/26 10:57:55;;;;;;;36.77;13.30;;;;;;;;;;5091233;28;20285;-81
2022/11/26 11:00:29;;;;;;;37.00;13.93;;;7.70;99.90;;;;;;5103973;28;20360;-80
2022/11/26 11:02:56;;;;;;;36.67;13.33;;;;;;;;;;5081742;28;20290;-82
2022/11/26 11:05:22;;;;;;;39.47;14.83;;;;;;;;;;5085786;28;20305;-80
2022/11/26 11:07:52;;;;;;;39.90;13.10;;;;;;;;;;5085526;28;20368;-82
2022/11/26 11:10:20;;;;;;;38.30;13.83;;;;;;;;;;5097797;28;20332;-79
2022/11/26 11:13:03;;;;;;;36.47;12.77;;;8.10;99.90;;;;;;5093193;28;20318;-77
2022/11/26 11:15:34;;;;;;;33.97;13.43;;;8.00;99.90;;;;;;5092750;28;20298;-82
2022/11/26 11:18:15;;;;;;;36.97;14.70;;;8.00;99.90;;;;;;5093250;28;20282;-81
2022/11/26 11:20:54;;;;;;;45.70;15.47;;;8.10;99.90;;;;;;5093426;28;20317;-81
2022/11/26 11:23:25;;;;;;;31.67;12.17;;;8.10;99.90;;;;;;5092432;28;20274;-80
2022/11/26 11:26:15;;;;;;;34.43;13.37;;;;;;;;;;5092195;28;20317;-86
2022/11/26 11:28:45;;;;;;;34.83;13.37;;;;;;;;;;5093506;28;20274;-81
2022/11/26 11:31:13;;;;;;;34.00;13.33;;;;;;;;;;5092785;28;20351;-77
2022/11/26 11:33:39;;;;;;;39.87;13.43;;;8.30;99.90;;;;;;5100173;28;20281;-84
2022/11/26 11:36:19;;;;;;;38.47;12.50;;;8.20;99.90;;;;;;5102068;28;20288;-83
2022/11/26 11:38:49;;;;;;;33.87;13.43;;;8.30;99.90;;;;;;5101049;28;20052;-85
2022/11/26 11:41:26;;;;;;;35.20;13.07;;;8.30;99.90;;;;;;5096997;28;20320;-82
2022/11/26 11:44:24;;;;;;;39.60;12.40;;;8.30;99.90;;;;;;5093066;28;20290;-82
2022/11/26 11:47:08;;;;;;;36.87;12.87;;;8.30;99.90;;;;;;5083922;28;20400;-82
2022/11/26 11:49:33;;;;;;;28.43;12.23;;;8.40;99.90;;;;;;5093415;28;20297;-79
2022/11/26 11:52:27;;;;;;;37.43;13.83;;;8.40;99.90;;;;;;5092672;28;20824;-79
2022/11/26 11:55:10;;;;;;;31.83;12.97;;;8.40;99.90;;;;;;5092642;28;20083;-77
2022/11/26 11:57:38;;;;;;;34.63;12.40;;;8.40;99.90;;;;;;5093222;28;20274;-76
2022/11/26 12:00:17;;;;;;;34.10;12.33;;;8.50;99.90;;;;;;5092625;28;20286;-77
2022/11/26 12:02:49;;;;;;;38.10;12.20;;;;;;;;;;5093072;28;20316;-78
2022/11/26 12:05:15;;;;;;;37.13;12.80;;;;;;;;;;5093111;28;20305;-77
2022/11/26 12:07:46;;;;;;;34.97;11.53;;;;;;;;;;5093149;28;20282;-78
2022/11/26 12:10:41;;;;;;;39.57;12.47;;;8.50;99.90;;;;;;5092671;28;20270;-77
2022/11/26 12:13:11;;;;;;;39.60;12.95;;;8.60;99.90;;;;;;5092689;28;20277;-77
2022/11/26 12:15:50;;;;;;;37.83;11.50;;;8.60;99.90;;;;;;5091969;28;20476;-79
2022/11/26 12:18:31;;;;;;;30.20;11.60;;;;;;;;;;5093204;28;20274;-87
2022/11/26 12:21:13;;;;;;;36.80;12.57;;;8.20;99.90;;;;;;5092457;28;20286;-85
2022/11/26 12:23:39;;;;;;;39.90;12.10;;;;;;;;;;5091803;28;20282;-85
2022/11/26 12:26:18;;;;;;;32.97;12.30;;;;;;;;;;5091274;28;20306;-84
2022/11/26 12:28:53;;;;;;;31.43;11.70;;;;;;;;;;5092676;28;20320;-83
2022/11/26 12:31:19;;;;;;;;;;;;;;;;;;5093150;28;20294;-83
2022/11/26 12:33:49;;;;;;;33.27;10.60;;;;;;;;;;5092687;28;20013;-83
2022/11/26 12:36:45;;;;;;;26.73;11.37;;;;;;;;;;5093233;28;20285;-81
2022/11/26 12:39:17;;;;;;;34.25;10.55;;;;;;;;;;5086028;28;20306;-85
2022/11/26 12:42:04;;;;;;;35.13;11.53;;;;;;;;;;5096777;28;20052;-84
2022/11/26 12:44:32;;;;;;;24.90;10.77;;;;;;;;;;5096445;28;20282;-83
2022/11/26 12:47:01;;;;;;;39.30;12.23;;;;;;;;;;5094900;28;20692;-80
2022/11/26 12:49:53;;;;;;;38.70;12.37;;;;;;;;;;5096366;28;20311;-82
2022/11/26 12:52:22;;;;;;;31.27;11.63;;;;;;;;;;5080421;28;20327;-80
2022/11/26 12:54:54;;;;;;;36.43;13.00;;;;;;;;;;5095445;28;20373;-80
2022/11/26 12:57:22;;;;;;;33.03;11.87;;;;;;;;;;5095444;28;20297;-81
2022/11/26 12:59:51;;;;;;;33.77;12.23;;;;;;;;;;5096234;28;20278;-80
2022/11/26 13:02:23;;;;;;;36.27;13.27;;;9.10;99.90;;;;;;5095889;28;20311;-79
2022/11/26 13:04:50;;;;;;;38.63;12.77;;;;;;;;;;5096268;28;20282;-77